Home PIREPS Pireps

Flight BEL468

  • Submitted By: Marc Toussaint
  • Departure Airport: Madrid / Barajas (LEMD)
  • Arrival Airport: Rhein-Main-Flughafen Frankfurt am Main (EDDF)
  • Aircraft: BAE AVRO RJ1 (OO-DWH)
  • Flight Time: 03.02
  • Date Submitted: 28/11/2015
  • Route: LEMD-EDDF
  • Status: Accepted
Flight Details
Gross Revenue:
(84 load / € 0.00 per unit
€ 0.00
Fuel Cost:
(34002 fuel used @ 0 / unit)
€ 0.00

Additional Log Information:

View Log

Aircraft Used in flight is Boeing 757-300 Lufthansa Concept 2008
17:51 Brakes are On
18:11 Brakes are Released
18:13 Brakes are On
18:15 Brakes are Released
18:31 You Took off @ 178 Knots and Flaps at Position 2
Departure Weather
LEMD 281600Z 36003KT 320V030 9999 FEW045 16/04 Q1024 NOSIGrn
18:31 Landing Gear Up @ 185 Knots and 2100 Feet
18:32 You exceeded maximum bank angle
18:56 Above FL100 you need to switch of the landing lights
18:56 Above FL100 you need to switch of the landing lights
20:41 Overspeed
20:42 Below 10000 feet you are not allowed to go over 250 knots
20:42 Recovered from Overspeed
20:46 Landing Gear Down @ 191 Knots and 3090 Feet
20:48 Paused
20:49 Unpaused
20:49 You Landed @ 131 Knots and with -200 Vertical Speed
Arrival Weather
EDDF 281820Z 20011KT CAVOK 03/M01 Q1018 R88/290095 NOSIGrn
20:54 You are Airborne and your Beacons are off
20:54 You are Airborne and your Navigation Lights are off
20:54 Brussels Bel-Track1.0.1.2

Route Map

Corporate About Us Our Team Vacancies Information Fleet Route Network Rules and Regulations Operations Flight Schedules Event Center Tours Partners IVAO Vatsim Acars dev FSCB

fb Users Online No pilots online!
0 Pilot(s) and 194 Guest(s) Online
CMS by phpVMS - Design by Crazycreatives.com - Copyright © 2018 - Brussels Airlines Virtual